Wetterdaten: Woche 22.08.11 - 28.08.11 (KW34)
Datum Zeit Temp. Innen Temp. Aussen UV X Diff Temp. Feuchte Inne Feuchte Auss Sonnenschein Luftdruck Regen ab 0,1 Wind Sonnenschein T Regendauer Windben
22.08.2011 00:00 25,1 C 20,8 C 0,0 UV-I 0,0 C 65 % 91 % 0 % 1016,8 hPa 0,0 l/m 0,2 km/h (0 Bft) 0,00 h 0,00 h 0,7 km/h (0 Bft)
22.08.2011 01:00 24,9 C 19,5 C 0,0 UV-I 0,0 C 66 % 91 % 0 % 1017,0 hPa 0,0 l/m 0,0 km/h (0 Bft) 0,00 h 0,00 h 0,0 km/h (0 Bft)
22.08.2011 02:00 24,8 C 18,5 C 0,0 UV-I 0,0 C 66 % 91 % 0 % 1017,4 hPa 0,0 l/m 0,0 km/h (0 Bft) 0,00 h 0,00 h 0,0 km/h (0 Bft)
22.08.2011 03:00 24,6 C 17,9 C 0,0 UV-I 0,0 C 66 % 92 % 0 % 1017,5 hPa 0,0 l/m 0,0 km/h (0 Bft) 0,00 h 0,00 h 0,0 km/h (0 Bft)
22.08.2011 04:00 24,5 C 17,8 C 0,0 UV-I 0,0 C 66 % 93 % 0 % 1017,7 hPa 0,0 l/m 0,0 km/h (0 Bft) 0,00 h 0,00 h 0,0 km/h (0 Bft)
22.08.2011 05:00 24,4 C 17,5 C 0,0 UV-I 0,0 C 66 % 93 % 0 % 1017,8 hPa 0,0 l/m 0,0 km/h (0 Bft) 0,00 h 0,00 h 0,0 km/h (0 Bft)
22.08.2011 06:00 24,4 C 17,0 C 0,0 UV-I 0,0 C 66 % 93 % 0 % 1018,0 hPa 0,0 l/m 0,0 km/h (0 Bft) 0,00 h 0,00 h 0,0 km/h (0 Bft)
22.08.2011 07:00 24,2 C 16,8 C 0,0 UV-I 0,0 C 66 % 93 % 0 % 1018,5 hPa 0,0 l/m 0,1 km/h (0 Bft) 0,00 h 0,00 h 0,2 km/h (0 Bft)
22.08.2011 08:00 24,2 C 17,0 C 0,0 UV-I 0,0 C 66 % 93 % 0 % 1019,0 hPa 0,1 l/m 0,1 km/h (0 Bft) 0,00 h 0,17 h 0,6 km/h (0 Bft)
22.08.2011 09:00 24,2 C 17,2 C 0,0 UV-I 0,0 C 65 % 93 % 1 % 1019,2 hPa 0,2 l/m 0,0 km/h (0 Bft) 0,00 h 0,33 h 0,2 km/h (0 Bft)
22.08.2011 10:00 24,3 C 17,6 C 0,3 UV-I 0,1 C 65 % 93 % 4 % 1019,6 hPa 0,1 l/m 0,2 km/h (0 Bft) 0,00 h 0,30 h 0,5 km/h (0 Bft)
22.08.2011 11:00 24,3 C 18,1 C 0,4 UV-I 0,3 C 65 % 93 % 9 % 1019,6 hPa 0,9 l/m 0,3 km/h (0 Bft) 0,00 h 0,50 h 0,7 km/h (0 Bft)
22.08.2011 12:00 24,5 C 18,9 C 0,7 UV-I 1,7 C 65 % 92 % 50 % 1019,7 hPa 0,0 l/m 0,1 km/h (0 Bft) 0,00 h 0,00 h 0,5 km/h (0 Bft)
22.08.2011 13:00 24,6 C 19,3 C 0,5 UV-I 0,8 C 65 % 91 % 24 % 1019,9 hPa 0,1 l/m 0,6 km/h (0 Bft) 0,00 h 0,20 h 1,8 km/h (1 Bft)
22.08.2011 14:00 24,6 C 19,4 C 0,4 UV-I 0,0 C 65 % 91 % 1 % 1019,8 hPa 0,4 l/m 0,5 km/h (0 Bft) 0,00 h 0,30 h 1,1 km/h (1 Bft)
22.08.2011 15:00 24,6 C 19,7 C 0,7 UV-I 0,7 C 65 % 91 % 20 % 1019,2 hPa 0,2 l/m 0,5 km/h (0 Bft) 0,10 h 0,33 h 1,1 km/h (1 Bft)
22.08.2011 16:00 25,2 C 20,9 C 1,8 UV-I 2,7 C 64 % 86 % 74 % 1019,6 hPa 0,0 l/m 1,7 km/h (1 Bft) 0,30 h 0,00 h 3,7 km/h (1 Bft)
22.08.2011 17:00 25,8 C 21,7 C 1,9 UV-I 2,7 C 62 % 74 % 74 % 1019,9 hPa 0,0 l/m 5,8 km/h (2 Bft) 0,50 h 0,00 h 8,8 km/h (2 Bft)
22.08.2011 18:00 25,7 C 21,9 C 0,7 UV-I 1,1 C 62 % 73 % 30 % 1019,8 hPa 0,0 l/m 4,0 km/h (1 Bft) 0,00 h 0,00 h 5,2 km/h (1 Bft)
22.08.2011 19:00 25,5 C 21,1 C 0,0 UV-I 0,0 C 62 % 75 % 1 % 1019,5 hPa 0,0 l/m 1,4 km/h (1 Bft) 0,00 h 0,00 h 2,0 km/h (1 Bft)
22.08.2011 20:00 25,1 C 20,1 C 0,0 UV-I 0,0 C 63 % 80 % 0 % 1018,7 hPa 0,0 l/m 0,9 km/h (0 Bft) 0,00 h 0,00 h 1,7 km/h (1 Bft)
22.08.2011 21:00 24,7 C 19,4 C 0,0 UV-I 0,0 C 64 % 83 % 0 % 1018,1 hPa 0,0 l/m 0,4 km/h (0 Bft) 0,00 h 0,00 h 1,3 km/h (1 Bft)
22.08.2011 22:00 24,6 C 19,2 C 0,0 UV-I 0,0 C 64 % 85 % 0 % 1017,7 hPa 0,0 l/m 0,2 km/h (0 Bft) 0,00 h 0,00 h 0,6 km/h (0 Bft)
22.08.2011 23:00 24,5 C 18,8 C 0,0 UV-I 0,0 C 65 % 87 % 0 % 1017,4 hPa 0,0 l/m 0,4 km/h (0 Bft) 0,00 h 0,00 h 0,8 km/h (0 Bft)
23.08.2011 00:00 24,4 C 18,4 C 0,0 UV-I 0,0 C 65 % 88 % 0 % 1017,2 hPa 0,0 l/m 0,3 km/h (0 Bft) 0,00 h 0,00 h 0,7 km/h (0 Bft)
23.08.2011 01:00 24,2 C 18,0 C 0,0 UV-I 0,0 C 65 % 90 % 0 % 1016,4 hPa 0,0 l/m 0,1 km/h (0 Bft) 0,00 h 0,00 h 0,1 km/h (0 Bft)
23.08.2011 02:00 24,1 C 18,2 C 0,0 UV-I 0,0 C 66 % 90 % 0 % 1017,7 hPa 6,3 l/m 9,2 km/h (2 Bft) 0,00 h 0,73 h 15,3 km/h (3 Bft)
23.08.2011 03:00 24,0 C 17,3 C 0,0 UV-I 0,0 C 66 % 91 % 0 % 1016,5 hPa 0,5 l/m 1,9 km/h (1 Bft) 0,00 h 0,60 h 1,9 km/h (1 Bft)
23.08.2011 04:00 23,8 C 16,8 C 0,0 UV-I 0,0 C 66 % 92 % 0 % 1015,1 hPa 0,1 l/m 1,0 km/h (0 Bft) 0,00 h 0,00 h 2,0 km/h (1 Bft)
23.08.2011 05:00 23,7 C 16,9 C 0,0 UV-I 0,0 C 66 % 93 % 0 % 1014,5 hPa 0,0 l/m 2,5 km/h (1 Bft) 0,00 h 0,00 h 4,6 km/h (1 Bft)
23.08.2011 06:00 23,6 C 17,1 C 0,0 UV-I 0,0 C 67 % 93 % 0 % 1015,3 hPa 0,0 l/m 1,9 km/h (1 Bft) 0,00 h 0,00 h 4,2 km/h (1 Bft)
23.08.2011 07:00 23,6 C 16,8 C 0,0 UV-I 0,0 C 67 % 93 % 0 % 1014,4 hPa 0,0 l/m 3,4 km/h (1 Bft) 0,00 h 0,00 h 5,2 km/h (1 Bft)
23.08.2011 08:00 23,6 C 17,5 C 0,3 UV-I 0,8 C 67 % 93 % 24 % 1014,1 hPa 0,0 l/m 3,3 km/h (1 Bft) 0,07 h 0,00 h 5,7 km/h (1 Bft)
23.08.2011 09:00 23,8 C 18,8 C 0,6 UV-I 2,0 C 67 % 93 % 55 % 1013,0 hPa 0,0 l/m 3,0 km/h (1 Bft) 0,17 h 0,00 h 5,5 km/h (1 Bft)
23.08.2011 10:00 24,0 C 20,0 C 1,3 UV-I 3,6 C 67 % 91 % 89 % 1013,5 hPa 0,0 l/m 4,5 km/h (1 Bft) 0,70 h 0,00 h 8,0 km/h (2 Bft)
23.08.2011 11:00 24,2 C 21,1 C 1,2 UV-I 3,1 C 67 % 87 % 82 % 1013,0 hPa 0,0 l/m 7,1 km/h (2 Bft) 0,53 h 0,00 h 9,4 km/h (2 Bft)
23.08.2011 12:00 24,5 C 21,2 C 0,5 UV-I 1,2 C 66 % 85 % 35 % 1013,7 hPa 0,0 l/m 6,9 km/h (2 Bft) 0,00 h 0,00 h 12,2 km/h (2 Bft)
23.08.2011 13:00 24,6 C 21,6 C 2,1 UV-I 3,7 C 66 % 81 % 80 % 1013,3 hPa 0,0 l/m 6,4 km/h (2 Bft) 0,70 h 0,00 h 9,1 km/h (2 Bft)
23.08.2011 14:00 25,3 C 23,9 C 2,6 UV-I 5,7 C 64 % 74 % 100 % 1013,4 hPa 0,0 l/m 2,1 km/h (1 Bft) 1,00 h 0,00 h 4,3 km/h (1 Bft)
23.08.2011 15:00 26,2 C 25,8 C 3,1 UV-I 5,7 C 63 % 70 % 100 % 1013,2 hPa 0,0 l/m 2,4 km/h (1 Bft) 1,00 h 0,00 h 5,0 km/h (1 Bft)
23.08.2011 16:00 26,8 C 26,6 C 2,5 UV-I 4,1 C 61 % 68 % 92 % 1013,4 hPa 0,0 l/m 2,7 km/h (1 Bft) 0,77 h 0,00 h 4,7 km/h (1 Bft)
23.08.2011 17:00 27,1 C 26,9 C 2,1 UV-I 3,4 C 61 % 68 % 82 % 1013,2 hPa 0,0 l/m 3,4 km/h (1 Bft) 0,60 h 0,00 h 6,5 km/h (2 Bft)
23.08.2011 18:00 26,8 C 26,6 C 0,8 UV-I 1,0 C 62 % 70 % 27 % 1012,7 hPa 0,0 l/m 1,9 km/h (1 Bft) 0,00 h 0,00 h 3,5 km/h (1 Bft)
23.08.2011 19:00 26,4 C 25,8 C 0,2 UV-I 0,1 C 63 % 71 % 2 % 1012,4 hPa 0,0 l/m 0,4 km/h (0 Bft) 0,00 h 0,00 h 1,1 km/h (1 Bft)
23.08.2011 20:00 26,1 C 24,3 C 0,0 UV-I 0,0 C 64 % 77 % 0 % 1012,8 hPa 0,0 l/m 0,1 km/h (0 Bft) 0,00 h 0,00 h 0,2 km/h (0 Bft)
23.08.2011 21:00 25,8 C 22,4 C 0,0 UV-I 0,0 C 65 % 83 % 0 % 1013,3 hPa 0,0 l/m 0,0 km/h (0 Bft) 0,00 h 0,00 h 0,0 km/h (0 Bft)
23.08.2011 22:00 25,5 C 21,2 C 0,0 UV-I 0,0 C 66 % 87 % 0 % 1013,6 hPa 0,0 l/m 0,0 km/h (0 Bft) 0,00 h 0,00 h 0,0 km/h (0 Bft)
23.08.2011 23:00 25,2 C 20,5 C 0,0 UV-I 0,0 C 67 % 88 % 0 % 1013,7 hPa 0,0 l/m 0,0 km/h (0 Bft) 0,00 h 0,00 h 0,0 km/h (0 Bft)
24.08.2011 00:00 25,2 C 20,5 C 0,0 UV-I 0,0 C 67 % 89 % 0 % 1014,0 hPa 0,0 l/m 0,0 km/h (0 Bft) 0,00 h 0,00 h 0,0 km/h (0 Bft)
24.08.2011 01:00 25,1 C 20,5 C 0,0 UV-I 0,0 C 67 % 89 % 0 % 1014,3 hPa 0,0 l/m 0,0 km/h (0 Bft) 0,00 h 0,00 h 0,0 km/h (0 Bft)
24.08.2011 02:00 25,0 C 19,9 C 0,0 UV-I 0,0 C 68 % 89 % 0 % 1014,7 hPa 0,0 l/m 0,0 km/h (0 Bft) 0,00 h 0,00 h 0,0 km/h (0 Bft)
24.08.2011 03:00 24,8 C 19,4 C 0,0 UV-I 0,0 C 67 % 89 % 0 % 1014,6 hPa 0,0 l/m 0,0 km/h (0 Bft) 0,00 h 0,00 h 0,0 km/h (0 Bft)
24.08.2011 04:00 24,7 C 18,9 C 0,0 UV-I 0,0 C 67 % 90 % 0 % 1014,3 hPa 0,0 l/m 0,0 km/h (0 Bft) 0,00 h 0,00 h 0,0 km/h (0 Bft)
24.08.2011 05:00 24,6 C 18,2 C 0,0 UV-I 0,0 C 68 % 90 % 0 % 1014,3 hPa 0,0 l/m 0,0 km/h (0 Bft) 0,00 h 0,00 h 0,0 km/h (0 Bft)
24.08.2011 06:00 24,4 C 17,7 C 0,0 UV-I 0,0 C 68 % 92 % 0 % 1014,6 hPa 0,0 l/m 0,3 km/h (0 Bft) 0,00 h 0,00 h 0,5 km/h (0 Bft)
24.08.2011 07:00 24,3 C 17,9 C 0,0 UV-I 0,0 C 67 % 93 % 0 % 1014,9 hPa 0,0 l/m 0,2 km/h (0 Bft) 0,00 h 0,00 h 0,2 km/h (0 Bft)
24.08.2011 08:00 24,4 C 19,0 C 0,1 UV-I 0,9 C 68 % 93 % 24 % 1015,1 hPa 0,0 l/m 0,8 km/h (0 Bft) 0,13 h 0,00 h 3,1 km/h (1 Bft)
24.08.2011 09:00 24,6 C 21,6 C 1,4 UV-I 6,5 C 67 % 88 % 100 % 1015,3 hPa 0,0 l/m 2,7 km/h (1 Bft) 1,00 h 0,00 h 5,0 km/h (1 Bft)
24.08.2011 10:00 24,7 C 23,6 C 3,5 UV-I 7,2 C 66 % 77 % 100 % 1014,4 hPa 0,0 l/m 2,9 km/h (1 Bft) 1,00 h 0,00 h 6,2 km/h (2 Bft)
24.08.2011 11:00 24,9 C 24,9 C 3,8 UV-I 5,9 C 66 % 69 % 100 % 1014,3 hPa 0,0 l/m 4,9 km/h (1 Bft) 1,00 h 0,00 h 9,5 km/h (2 Bft)
24.08.2011 12:00 25,2 C 25,6 C 2,4 UV-I 5,5 C 65 % 65 % 100 % 1014,2 hPa 0,0 l/m 5,7 km/h (1 Bft) 1,00 h 0,00 h 9,4 km/h (2 Bft)
24.08.2011 13:00 25,6 C 25,7 C 2,6 UV-I 3,7 C 63 % 60 % 90 % 1014,8 hPa 0,0 l/m 7,5 km/h (2 Bft) 0,77 h 0,00 h 11,8 km/h (2 Bft)
24.08.2011 14:00 25,9 C 23,9 C 1,2 UV-I 1,6 C 62 % 66 % 47 % 1015,4 hPa 0,0 l/m 5,5 km/h (1 Bft) 0,00 h 0,00 h 7,9 km/h (2 Bft)
24.08.2011 15:00 25,9 C 22,5 C 0,9 UV-I 1,3 C 61 % 69 % 38 % 1015,3 hPa 0,0 l/m 5,9 km/h (2 Bft) 0,00 h 0,00 h 8,5 km/h (2 Bft)
24.08.2011 16:00 25,9 C 22,2 C 1,0 UV-I 1,2 C 61 % 71 % 35 % 1015,3 hPa 0,0 l/m 2,0 km/h (1 Bft) 0,00 h 0,00 h 4,8 km/h (1 Bft)
24.08.2011 17:00 26,0 C 22,4 C 0,8 UV-I 1,6 C 61 % 70 % 46 % 1015,3 hPa 0,0 l/m 1,3 km/h (1 Bft) 0,00 h 0,00 h 2,8 km/h (1 Bft)
24.08.2011 18:00 26,0 C 22,2 C 0,4 UV-I 0,9 C 60 % 71 % 26 % 1015,3 hPa 0,0 l/m 0,7 km/h (0 Bft) 0,00 h 0,00 h 2,4 km/h (1 Bft)
24.08.2011 19:00 25,8 C 21,9 C 0,0 UV-I 0,1 C 61 % 73 % 3 % 1015,5 hPa 0,0 l/m 0,1 km/h (0 Bft) 0,00 h 0,00 h 0,6 km/h (0 Bft)
24.08.2011 20:00 25,6 C 21,5 C 0,0 UV-I 0,0 C 61 % 74 % 0 % 1015,6 hPa 0,0 l/m 0,2 km/h (0 Bft) 0,00 h 0,03 h 0,9 km/h (0 Bft)
24.08.2011 21:00 25,3 C 20,7 C 0,0 UV-I 0,0 C 62 % 77 % 0 % 1015,9 hPa 0,0 l/m 0,1 km/h (0 Bft) 0,00 h 0,00 h 0,8 km/h (0 Bft)
24.08.2011 22:00 25,1 C 19,6 C 0,0 UV-I 0,0 C 62 % 79 % 0 % 1016,5 hPa 0,0 l/m 0,1 km/h (0 Bft) 0,00 h 0,03 h 0,1 km/h (0 Bft)
24.08.2011 23:00 24,9 C 18,3 C 0,0 UV-I 0,0 C 62 % 81 % 0 % 1016,5 hPa 0,0 l/m 0,2 km/h (0 Bft) 0,00 h 0,03 h 0,6 km/h (0 Bft)
25.08.2011 00:00 24,7 C 17,0 C 0,0 UV-I 0,0 C 63 % 84 % 0 % 1016,3 hPa 0,0 l/m 0,0 km/h (0 Bft) 0,00 h 0,10 h 0,0 km/h (0 Bft)
25.08.2011 01:00 24,5 C 15,9 C 0,0 UV-I 0,0 C 63 % 86 % 0 % 1016,6 hPa 0,0 l/m 0,0 km/h (0 Bft) 0,00 h 0,07 h 0,0 km/h (0 Bft)
25.08.2011 02:00 24,2 C 15,0 C 0,0 UV-I 0,0 C 63 % 88 % 0 % 1016,8 hPa 0,0 l/m 0,0 km/h (0 Bft) 0,00 h 0,03 h 0,1 km/h (0 Bft)
25.08.2011 03:00 24,0 C 14,4 C 0,0 UV-I 0,0 C 63 % 89 % 0 % 1016,6 hPa 0,0 l/m 0,0 km/h (0 Bft) 0,00 h 0,07 h 0,0 km/h (0 Bft)
25.08.2011 04:00 23,9 C 14,1 C 0,0 UV-I 0,0 C 63 % 90 % 0 % 1016,2 hPa 0,0 l/m 0,1 km/h (0 Bft) 0,00 h 0,13 h 0,6 km/h (0 Bft)
25.08.2011 05:00 23,8 C 14,1 C 0,0 UV-I 0,0 C 63 % 91 % 0 % 1016,1 hPa 0,0 l/m 0,5 km/h (0 Bft) 0,00 h 0,03 h 1,4 km/h (1 Bft)
25.08.2011 06:00 23,6 C 14,0 C 0,0 UV-I 0,0 C 62 % 92 % 0 % 1015,6 hPa 0,0 l/m 0,2 km/h (0 Bft) 0,00 h 0,07 h 0,8 km/h (0 Bft)
25.08.2011 07:00 23,6 C 14,2 C 0,0 UV-I 0,0 C 63 % 92 % 0 % 1015,5 hPa 0,0 l/m 0,0 km/h (0 Bft) 0,00 h 0,10 h 0,0 km/h (0 Bft)
25.08.2011 08:00 23,6 C 15,4 C 0,0 UV-I 0,8 C 63 % 93 % 23 % 1015,1 hPa 0,0 l/m 1,1 km/h (1 Bft) 0,00 h 0,07 h 3,4 km/h (1 Bft)
25.08.2011 09:00 23,8 C 17,5 C 0,3 UV-I 2,9 C 63 % 91 % 75 % 1015,1 hPa 0,0 l/m 3,4 km/h (1 Bft) 0,43 h 0,00 h 6,1 km/h (2 Bft)
25.08.2011 10:00 24,0 C 20,4 C 2,9 UV-I 5,8 C 63 % 85 % 100 % 1014,7 hPa 0,0 l/m 6,4 km/h (2 Bft) 1,00 h 0,00 h 9,5 km/h (2 Bft)
25.08.2011 11:00 24,2 C 22,5 C 3,6 UV-I 4,6 C 63 % 75 % 100 % 1014,1 hPa 0,0 l/m 7,8 km/h (2 Bft) 1,00 h 0,00 h 9,7 km/h (2 Bft)
25.08.2011 12:00 24,5 C 23,8 C 1,6 UV-I 4,1 C 62 % 70 % 90 % 1013,8 hPa 0,0 l/m 6,4 km/h (2 Bft) 0,73 h 0,00 h 8,9 km/h (2 Bft)
25.08.2011 13:00 25,0 C 23,9 C 2,2 UV-I 2,9 C 62 % 72 % 83 % 1013,7 hPa 0,0 l/m 5,4 km/h (1 Bft) 0,57 h 0,00 h 7,5 km/h (2 Bft)
25.08.2011 14:00 25,8 C 25,5 C 3,3 UV-I 5,4 C 61 % 67 % 100 % 1013,6 hPa 0,0 l/m 4,7 km/h (1 Bft) 1,00 h 0,00 h 7,1 km/h (2 Bft)
25.08.2011 15:00 26,2 C 25,3 C 1,7 UV-I 2,4 C 59 % 66 % 61 % 1013,5 hPa 0,0 l/m 2,5 km/h (1 Bft) 0,37 h 0,10 h 4,5 km/h (1 Bft)
25.08.2011 16:00 26,7 C 26,2 C 2,2 UV-I 3,1 C 58 % 63 % 75 % 1013,3 hPa 0,0 l/m 3,3 km/h (1 Bft) 0,47 h 0,00 h 5,7 km/h (1 Bft)
25.08.2011 17:00 26,5 C 24,7 C 1,3 UV-I 0,1 C 58 % 68 % 2 % 1012,9 hPa 0,0 l/m 2,3 km/h (1 Bft) 0,00 h 0,23 h 4,7 km/h (1 Bft)
25.08.2011 18:00 26,2 C 23,8 C 0,6 UV-I 0,4 C 60 % 73 % 11 % 1012,1 hPa 0,0 l/m 1,4 km/h (1 Bft) 0,00 h 0,00 h 2,8 km/h (1 Bft)
25.08.2011 19:00 26,0 C 23,8 C 0,1 UV-I 0,1 C 61 % 73 % 3 % 1012,3 hPa 0,0 l/m 0,1 km/h (0 Bft) 0,00 h 0,00 h 0,4 km/h (0 Bft)
25.08.2011 20:00 25,8 C 22,6 C 0,0 UV-I 0,0 C 62 % 76 % 0 % 1012,3 hPa 0,0 l/m 0,1 km/h (0 Bft) 0,00 h 0,03 h 0,0 km/h (0 Bft)
25.08.2011 21:00 25,5 C 21,3 C 0,0 UV-I 0,0 C 63 % 80 % 0 % 1012,4 hPa 0,0 l/m 0,0 km/h (0 Bft) 0,00 h 0,00 h 0,0 km/h (0 Bft)
25.08.2011 22:00 25,2 C 20,6 C 0,0 UV-I 0,0 C 63 % 82 % 0 % 1012,2 hPa 0,0 l/m 0,2 km/h (0 Bft) 0,00 h 0,00 h 0,2 km/h (0 Bft)
25.08.2011 23:00 25,0 C 19,8 C 0,0 UV-I 0,0 C 64 % 85 % 0 % 1011,7 hPa 0,0 l/m 0,0 km/h (0 Bft) 0,00 h 0,00 h 0,0 km/h (0 Bft)
26.08.2011 00:00 24,8 C 18,9 C 0,0 UV-I 0,0 C 64 % 87 % 0 % 1011,1 hPa 0,0 l/m 0,0 km/h (0 Bft) 0,00 h 0,00 h 0,0 km/h (0 Bft)
26.08.2011 01:00 24,7 C 18,7 C 0,0 UV-I 0,0 C 65 % 89 % 0 % 1011,0 hPa 0,0 l/m 0,0 km/h (0 Bft) 0,00 h 0,00 h 0,0 km/h (0 Bft)
26.08.2011 02:00 24,7 C 18,4 C 0,0 UV-I 0,0 C 65 % 90 % 0 % 1010,4 hPa 0,0 l/m 0,0 km/h (0 Bft) 0,00 h 0,00 h 0,0 km/h (0 Bft)
26.08.2011 03:00 24,6 C 18,1 C 0,0 UV-I 0,0 C 65 % 91 % 0 % 1009,1 hPa 0,0 l/m 0,0 km/h (0 Bft) 0,00 h 0,00 h 0,1 km/h (0 Bft)
26.08.2011 04:00 24,5 C 18,7 C 0,0 UV-I 0,0 C 66 % 92 % 0 % 1007,9 hPa 0,0 l/m 0,1 km/h (0 Bft) 0,00 h 0,00 h 0,9 km/h (0 Bft)
26.08.2011 05:00 24,4 C 18,6 C 0,0 UV-I 0,0 C 66 % 93 % 0 % 1007,4 hPa 0,0 l/m 1,3 km/h (1 Bft) 0,00 h 0,07 h 2,9 km/h (1 Bft)
26.08.2011 06:00 24,3 C 19,0 C 0,0 UV-I 0,0 C 67 % 93 % 0 % 1006,6 hPa 0,0 l/m 5,7 km/h (1 Bft) 0,00 h 0,10 h 8,7 km/h (2 Bft)
26.08.2011 07:00 24,4 C 19,6 C 0,0 UV-I 0,0 C 67 % 92 % 0 % 1005,3 hPa 0,0 l/m 4,7 km/h (1 Bft) 0,00 h 0,00 h 7,9 km/h (2 Bft)
26.08.2011 08:00 24,4 C 20,7 C 0,0 UV-I 0,4 C 67 % 89 % 11 % 1003,9 hPa 0,0 l/m 8,9 km/h (2 Bft) 0,00 h 0,00 h 14,3 km/h (3 Bft)
26.08.2011 09:00 24,6 C 21,7 C 0,5 UV-I 1,2 C 67 % 85 % 33 % 1004,0 hPa 0,0 l/m 10,8 km/h (2 Bft) 0,00 h 0,00 h 13,6 km/h (3 Bft)
26.08.2011 10:00 24,8 C 22,1 C 0,3 UV-I 0,1 C 66 % 84 % 3 % 1004,0 hPa 0,2 l/m 7,2 km/h (2 Bft) 0,00 h 0,33 h 9,9 km/h (2 Bft)
26.08.2011 11:00 25,0 C 23,2 C 1,7 UV-I 2,6 C 67 % 87 % 62 % 1003,9 hPa 0,0 l/m 4,0 km/h (1 Bft) 0,37 h 0,00 h 7,6 km/h (2 Bft)
26.08.2011 12:00 25,2 C 24,4 C 1,0 UV-I 2,7 C 66 % 75 % 57 % 1004,2 hPa 0,0 l/m 8,0 km/h (2 Bft) 0,47 h 0,00 h 10,0 km/h (2 Bft)
26.08.2011 13:00 25,1 C 21,1 C 0,8 UV-I 0,7 C 64 % 78 % 21 % 1004,9 hPa 0,1 l/m 5,8 km/h (1 Bft) 0,03 h 0,23 h 9,5 km/h (2 Bft)
26.08.2011 14:00 25,2 C 23,0 C 1,5 UV-I 2,6 C 63 % 70 % 73 % 1004,3 hPa 0,0 l/m 6,4 km/h (2 Bft) 0,23 h 0,00 h 7,6 km/h (2 Bft)
26.08.2011 15:00 25,5 C 23,8 C 0,8 UV-I 1,4 C 61 % 67 % 39 % 1004,7 hPa 0,0 l/m 6,6 km/h (2 Bft) 0,00 h 0,00 h 10,9 km/h (2 Bft)
26.08.2011 16:00 25,3 C 21,7 C 0,0 UV-I 0,0 C 61 % 75 % 0 % 1006,4 hPa 1,0 l/m 9,4 km/h (2 Bft) 0,00 h 0,67 h 11,8 km/h (2 Bft)
26.08.2011 17:00 25,1 C 19,2 C 0,1 UV-I 0,0 C 63 % 87 % 0 % 1006,3 hPa 0,7 l/m 2,8 km/h (1 Bft) 0,00 h 0,10 h 4,6 km/h (1 Bft)
26.08.2011 18:00 24,8 C 18,4 C 0,0 UV-I 0,0 C 64 % 87 % 0 % 1006,6 hPa 0,0 l/m 2,5 km/h (1 Bft) 0,00 h 0,00 h 5,0 km/h (1 Bft)
26.08.2011 19:00 24,6 C 18,2 C 0,0 UV-I 0,0 C 64 % 86 % 0 % 1006,9 hPa 0,0 l/m 4,4 km/h (1 Bft) 0,00 h 0,00 h 6,8 km/h (2 Bft)
26.08.2011 20:00 24,4 C 17,9 C 0,0 UV-I 0,0 C 64 % 85 % 0 % 1007,7 hPa 0,1 l/m 2,2 km/h (1 Bft) 0,00 h 0,60 h 4,4 km/h (1 Bft)
26.08.2011 21:00 24,2 C 17,4 C 0,0 UV-I 0,0 C 64 % 86 % 0 % 1008,1 hPa 0,4 l/m 1,2 km/h (1 Bft) 0,00 h 0,73 h 3,6 km/h (1 Bft)
26.08.2011 22:00 24,1 C 16,9 C 0,0 UV-I 0,0 C 65 % 89 % 0 % 1008,5 hPa 2,0 l/m 2,2 km/h (1 Bft) 0,00 h 1,00 h 4,4 km/h (1 Bft)
26.08.2011 23:00 23,9 C 16,5 C 0,0 UV-I 0,0 C 65 % 90 % 0 % 1008,1 hPa 1,7 l/m 1,4 km/h (1 Bft) 0,00 h 0,20 h 3,4 km/h (1 Bft)
27.08.2011 00:00 23,8 C 16,3 C 0,0 UV-I 0,0 C 66 % 91 % 0 % 1008,2 hPa 0,1 l/m 1,2 km/h (1 Bft) 0,00 h 0,00 h 3,2 km/h (1 Bft)
27.08.2011 01:00 23,6 C 16,1 C 0,0 UV-I 0,0 C 66 % 91 % 0 % 1009,1 hPa 0,0 l/m 0,3 km/h (0 Bft) 0,00 h 0,20 h 1,2 km/h (1 Bft)
27.08.2011 02:00 23,6 C 15,8 C 0,0 UV-I 0,0 C 66 % 91 % 0 % 1009,3 hPa 0,1 l/m 0,1 km/h (0 Bft) 0,00 h 0,33 h 0,3 km/h (0 Bft)
27.08.2011 03:00 23,5 C 15,6 C 0,0 UV-I 0,0 C 65 % 92 % 0 % 1009,3 hPa 0,5 l/m 1,5 km/h (1 Bft) 0,00 h 0,77 h 3,9 km/h (1 Bft)
27.08.2011 04:00 23,3 C 15,2 C 0,0 UV-I 0,0 C 65 % 92 % 0 % 1009,3 hPa 0,2 l/m 2,5 km/h (1 Bft) 0,00 h 0,67 h 5,4 km/h (1 Bft)
27.08.2011 05:00 23,2 C 14,7 C 0,0 UV-I 0,0 C 64 % 92 % 0 % 1009,8 hPa 1,6 l/m 3,4 km/h (1 Bft) 0,00 h 0,73 h 7,2 km/h (2 Bft)
27.08.2011 06:00 23,0 C 14,5 C 0,0 UV-I 0,0 C 64 % 92 % 0 % 1009,5 hPa 0,1 l/m 1,2 km/h (1 Bft) 0,00 h 0,23 h 3,5 km/h (1 Bft)
27.08.2011 07:00 22,9 C 14,3 C 0,0 UV-I 0,0 C 64 % 92 % 0 % 1009,8 hPa 0,0 l/m 3,0 km/h (1 Bft) 0,00 h 0,20 h 5,2 km/h (1 Bft)
27.08.2011 08:00 22,8 C 14,3 C 0,0 UV-I 0,0 C 63 % 92 % 0 % 1010,2 hPa 0,0 l/m 1,3 km/h (1 Bft) 0,00 h 0,00 h 3,6 km/h (1 Bft)
27.08.2011 09:00 22,8 C 14,7 C 0,4 UV-I 0,5 C 62 % 92 % 14 % 1010,8 hPa 0,1 l/m 2,9 km/h (1 Bft) 0,00 h 0,10 h 4,4 km/h (1 Bft)
27.08.2011 10:00 22,9 C 15,7 C 0,7 UV-I 1,6 C 61 % 89 % 45 % 1011,4 hPa 0,0 l/m 4,1 km/h (1 Bft) 0,00 h 0,00 h 6,7 km/h (2 Bft)
27.08.2011 11:00 22,8 C 17,1 C 2,2 UV-I 4,1 C 59 % 84 % 93 % 1011,4 hPa 0,0 l/m 6,1 km/h (2 Bft) 0,87 h 0,00 h 10,2 km/h (2 Bft)
27.08.2011 12:00 22,8 C 18,1 C 1,3 UV-I 3,7 C 57 % 76 % 81 % 1011,4 hPa 0,4 l/m 8,0 km/h (2 Bft) 0,57 h 0,10 h 11,2 km/h (2 Bft)
27.08.2011 13:00 22,9 C 16,3 C 2,6 UV-I 2,2 C 58 % 83 % 50 % 1011,6 hPa 0,7 l/m 5,4 km/h (1 Bft) 0,47 h 0,13 h 7,7 km/h (2 Bft)
27.08.2011 14:00 23,4 C 18,5 C 1,7 UV-I 3,1 C 57 % 75 % 82 % 1011,7 hPa 0,0 l/m 7,4 km/h (2 Bft) 0,60 h 0,00 h 11,2 km/h (2 Bft)
27.08.2011 15:00 23,9 C 19,2 C 3,1 UV-I 3,4 C 53 % 66 % 87 % 1012,2 hPa 0,0 l/m 11,0 km/h (2 Bft) 0,70 h 0,00 h 15,7 km/h (3 Bft)
27.08.2011 16:00 24,3 C 18,1 C 0,6 UV-I 1,3 C 51 % 69 % 36 % 1012,8 hPa 0,1 l/m 8,3 km/h (2 Bft) 0,20 h 0,37 h 10,9 km/h (2 Bft)
27.08.2011 17:00 23,9 C 16,2 C 1,1 UV-I 1,5 C 53 % 79 % 44 % 1013,3 hPa 0,1 l/m 4,8 km/h (1 Bft) 0,20 h 0,23 h 7,3 km/h (2 Bft)
27.08.2011 18:00 23,6 C 17,0 C 0,5 UV-I 0,7 C 54 % 78 % 21 % 1013,5 hPa 0,0 l/m 3,5 km/h (1 Bft) 0,00 h 0,00 h 6,0 km/h (2 Bft)
27.08.2011 19:00 23,2 C 16,7 C 0,0 UV-I 0,0 C 55 % 81 % 0 % 1013,7 hPa 0,0 l/m 3,0 km/h (1 Bft) 0,00 h 0,03 h 5,8 km/h (2 Bft)
27.08.2011 20:00 22,8 C 16,0 C 0,0 UV-I 0,0 C 55 % 80 % 0 % 1014,3 hPa 0,0 l/m 0,8 km/h (0 Bft) 0,00 h 0,00 h 1,1 km/h (1 Bft)
27.08.2011 21:00 22,5 C 15,2 C 0,0 UV-I 0,0 C 56 % 84 % 0 % 1015,1 hPa 0,0 l/m 2,4 km/h (1 Bft) 0,00 h 0,00 h 4,5 km/h (1 Bft)
27.08.2011 22:00 22,0 C 14,3 C 0,0 UV-I 0,0 C 56 % 84 % 0 % 1015,6 hPa 0,0 l/m 2,8 km/h (1 Bft) 0,00 h 0,00 h 5,8 km/h (2 Bft)
27.08.2011 23:00 21,7 C 13,9 C 0,0 UV-I 0,0 C 55 % 84 % 0 % 1015,7 hPa 0,0 l/m 4,1 km/h (1 Bft) 0,00 h 0,00 h 7,0 km/h (2 Bft)
28.08.2011 00:00 21,4 C 13,5 C 0,0 UV-I 0,0 C 56 % 85 % 0 % 1015,9 hPa 0,0 l/m 3,1 km/h (1 Bft) 0,00 h 0,00 h 6,4 km/h (2 Bft)
28.08.2011 01:00 21,1 C 13,4 C 0,0 UV-I 0,0 C 57 % 86 % 0 % 1016,2 hPa 0,0 l/m 3,4 km/h (1 Bft) 0,00 h 0,00 h 6,8 km/h (2 Bft)
28.08.2011 02:00 21,0 C 13,2 C 0,0 UV-I 0,0 C 57 % 87 % 0 % 1016,1 hPa 0,0 l/m 3,3 km/h (1 Bft) 0,00 h 0,00 h 5,5 km/h (1 Bft)
28.08.2011 03:00 20,7 C 13,0 C 0,0 UV-I 0,0 C 56 % 87 % 0 % 1015,8 hPa 0,0 l/m 4,0 km/h (1 Bft) 0,00 h 0,00 h 6,7 km/h (2 Bft)
28.08.2011 04:00 20,5 C 12,6 C 0,0 UV-I 0,0 C 57 % 88 % 0 % 1015,9 hPa 0,0 l/m 2,7 km/h (1 Bft) 0,00 h 0,00 h 3,7 km/h (1 Bft)
28.08.2011 05:00 20,4 C 12,6 C 0,0 UV-I 0,0 C 57 % 88 % 0 % 1015,7 hPa 0,0 l/m 2,7 km/h (1 Bft) 0,00 h 0,00 h 5,9 km/h (2 Bft)
28.08.2011 06:00 20,3 C 12,6 C 0,0 UV-I 0,0 C 57 % 88 % 0 % 1015,5 hPa 0,0 l/m 3,7 km/h (1 Bft) 0,00 h 0,00 h 6,1 km/h (2 Bft)
28.08.2011 07:00 20,2 C 12,4 C 0,0 UV-I 0,0 C 57 % 89 % 0 % 1015,6 hPa 0,0 l/m 3,9 km/h (1 Bft) 0,00 h 0,00 h 7,4 km/h (2 Bft)
28.08.2011 08:00 20,1 C 13,6 C 0,1 UV-I 0,8 C 58 % 87 % 22 % 1016,0 hPa 0,0 l/m 5,8 km/h (2 Bft) 0,03 h 0,00 h 8,6 km/h (2 Bft)
28.08.2011 09:00 20,2 C 14,8 C 0,6 UV-I 2,0 C 58 % 83 % 57 % 1016,3 hPa 0,0 l/m 7,0 km/h (2 Bft) 0,13 h 0,00 h 10,1 km/h (2 Bft)
28.08.2011 10:00 20,4 C 15,8 C 1,4 UV-I 2,9 C 57 % 79 % 82 % 1016,6 hPa 0,0 l/m 7,9 km/h (2 Bft) 0,50 h 0,00 h 10,4 km/h (2 Bft)
28.08.2011 11:00 20,7 C 17,5 C 3,1 UV-I 5,3 C 57 % 73 % 100 % 1016,4 hPa 0,0 l/m 8,9 km/h (2 Bft) 1,00 h 0,00 h 12,7 km/h (3 Bft)
28.08.2011 12:00 21,1 C 18,2 C 1,8 UV-I 3,9 C 55 % 67 % 95 % 1016,3 hPa 0,0 l/m 8,9 km/h (2 Bft) 0,93 h 0,00 h 11,5 km/h (2 Bft)
28.08.2011 13:00 21,3 C 18,0 C 1,2 UV-I 2,0 C 54 % 66 % 56 % 1016,4 hPa 0,0 l/m 9,5 km/h (2 Bft) 0,03 h 0,00 h 12,7 km/h (3 Bft)
28.08.2011 14:00 21,3 C 17,4 C 0,5 UV-I 0,7 C 53 % 68 % 19 % 1016,2 hPa 0,0 l/m 7,8 km/h (2 Bft) 0,00 h 0,03 h 11,9 km/h (2 Bft)
28.08.2011 15:00 21,3 C 17,4 C 0,8 UV-I 1,1 C 53 % 67 % 31 % 1016,1 hPa 0,0 l/m 8,0 km/h (2 Bft) 0,00 h 0,10 h 11,7 km/h (2 Bft)
28.08.2011 16:00 21,5 C 17,9 C 0,8 UV-I 1,5 C 52 % 65 % 42 % 1015,8 hPa 0,0 l/m 7,3 km/h (2 Bft) 0,00 h 0,00 h 10,1 km/h (2 Bft)
28.08.2011 17:00 21,4 C 16,1 C 0,2 UV-I 0,0 C 54 % 75 % 1 % 1015,8 hPa 0,4 l/m 6,3 km/h (2 Bft) 0,00 h 0,63 h 10,5 km/h (2 Bft)
28.08.2011 18:00 21,2 C 15,6 C 0,0 UV-I 0,0 C 55 % 78 % 0 % 1015,6 hPa 0,0 l/m 4,8 km/h (1 Bft) 0,00 h 0,00 h 7,1 km/h (2 Bft)
28.08.2011 19:00 21,1 C 15,8 C 0,0 UV-I 0,0 C 55 % 76 % 0 % 1015,1 hPa 0,0 l/m 3,7 km/h (1 Bft) 0,00 h 0,00 h 6,6 km/h (2 Bft)
28.08.2011 20:00 20,9 C 15,4 C 0,0 UV-I 0,0 C 56 % 78 % 0 % 1015,4 hPa 0,0 l/m 4,7 km/h (1 Bft) 0,00 h 0,20 h 6,7 km/h (2 Bft)
28.08.2011 21:00 20,7 C 15,1 C 0,0 UV-I 0,0 C 56 % 78 % 0 % 1015,7 hPa 0,0 l/m 3,8 km/h (1 Bft) 0,00 h 0,00 h 5,7 km/h (1 Bft)
28.08.2011 22:00 20,5 C 14,3 C 0,0 UV-I 0,0 C 56 % 80 % 0 % 1015,9 hPa 0,0 l/m 1,5 km/h (1 Bft) 0,00 h 0,00 h 4,5 km/h (1 Bft)
28.08.2011 23:00 20,4 C 13,5 C 0,0 UV-I 0,0 C 56 % 83 % 0 % 1015,4 hPa 0,0 l/m 1,3 km/h (1 Bft) 0,00 h 0,00 h 3,6 km/h (1 Bft)
Min-Datum _ 28.08.11 28.08.11 22.08.11 22.08.11 27.08.11 24.08.11 22.08.11 26.08.11 - 22.08.11 - - 22.08.11
_ Min-Zeit 07:38 07:00 00:00 00:00 16:20 13:18 00:00 12:04 - 00:00 - - 00:00
Minimum _ 20,1 C 12,3 C 0,0 UV-I 0,0 C 50 % 57 % 0 % 1003,2 hPa - 0,0 km/h (0 Bft) - - 0,0 km/h (0 Bft)
Max-Datum _ 23.08.11 23.08.11 27.08.11 24.08.11 24.08.11 23.08.11 22.08.11 22.08.11 23.08.11 23.08.11 22.08.11 22.08.11 23.08.11
_ Max-Zeit 17:20 17:06 13:30 10:08 01:24 08:34 16:50 14:04 02:32 02:18 15:52 08:14 02:12
Maximum _ 27,2 C 27,3 C 6,2 UV-I 7,7 C 68 % 94 % 100 % 1020,4 hPa 6,3 l/m 16,1 km/h
W-SW (3 Bft)
0,03 h 0,03 h 39,3 km/h
W-SW (6 Bft)
Durchschnitt _ 24,0 C 18,8 C 0,6 UV-I 1,0 C 62 % 83 % 23 % 1013,8 hPa #19,9 l/m 2,8 km/h (1 Bft) #24:14 h #13:42 h 4,6 km/h (1 Bft)
© 2012 W. Hausmann